Time;durP1;ratioP1;P1;durP2;ratioP2;P2;SDS_P1;SDS_P2;PMS_P1;PMS_P2;Temp;Humidity;BMP_temperature;BMP_pressure;BME280_temperature;BME280_humidity;BME280_pressure;Samples;Min_cycle;Max_cycle;Signal;HPM_P1;HPM_P2
2022/06/25 00:01:24;;;;;;;0.10;0.10;;;;;;;21.28;65.43;100854.50;5005867;28;20101;-76
2022/06/25 00:03:50;;;;;;;0.00;0.00;;;;;;;21.26;65.45;100847.47;5006125;28;20032;-76
2022/06/25 00:06:18;;;;;;;0.10;0.10;;;;;;;21.24;65.43;100838.63;5010903;28;20499;-76
2022/06/25 00:08:46;;;;;;;0.00;0.00;;;;;;;21.23;65.70;100853.91;5009447;28;20052;-76
2022/06/25 00:12:31;;;;;;;0.10;0.10;;;;;;;21.20;65.39;100842.47;5006428;28;20026;-76
2022/06/25 00:14:04;;;;;;;0.10;0.10;;;;;;;21.21;65.30;100845.09;5005553;28;20407;-76
2022/06/25 00:16:30;;;;;;;0.10;0.10;;;;;;;21.18;65.51;100850.66;5013145;28;20116;-76
2022/06/25 00:18:57;;;;;;;0.03;0.03;;;;;;;21.17;65.36;100851.63;5000613;28;20459;-76
2022/06/25 00:21:23;;;;;;;0.10;0.10;;;;;;;21.15;65.54;100853.56;5010031;28;20061;-76
2022/06/25 00:23:49;;;;;;;0.20;0.20;;;;;;;21.14;65.76;100849.13;5012055;28;20105;-76
2022/06/25 00:26:15;;;;;;;0.10;0.10;;;;;;;21.13;65.66;100850.09;5008199;28;20030;-77
2022/06/25 00:28:41;;;;;;;0.15;0.15;;;;;;;21.12;65.61;100845.66;5001242;28;20034;-77
2022/06/25 00:31:08;;;;;;;0.00;0.00;;;;;;;21.10;65.59;100850.31;5005442;28;20030;-78
2022/06/25 00:33:34;;;;;;;0.15;0.15;;;;;;;21.08;65.78;100853.06;5011305;28;20040;-76
2022/06/25 00:36:00;;;;;;;0.00;0.00;;;;;;;21.08;65.72;100861.16;5007145;28;20027;-76
2022/06/25 00:38:27;;;;;;;0.10;0.10;;;;;;;21.02;66.08;100856.16;5008442;28;20033;-77
2022/06/25 00:40:53;;;;;;;0.10;0.10;;;;;;;20.99;66.34;100854.53;4995718;28;20035;-76
2022/06/25 00:43:19;;;;;;;0.00;0.00;;;;;;;21.01;66.13;100862.53;4999079;28;20026;-77
2022/06/25 00:45:45;;;;;;;0.10;0.10;;;;;;;21.01;66.08;100855.31;5003062;28;20033;-76
2022/06/25 00:48:12;;;;;;;0.08;0.08;;;;;;;20.99;66.02;100857.22;5008110;28;20112;-76
2022/06/25 00:50:38;;;;;;;0.10;0.10;;;;;;;21.00;66.38;100858.97;5006020;28;20039;-77
2022/06/25 00:53:06;;;;;;;0.10;0.10;;;;;;;21.00;66.08;100858.97;5004641;28;20034;-76
2022/06/25 00:55:37;;;;;;;0.15;0.15;;;;;;;21.04;65.98;100865.03;5010148;28;20496;-76
2022/06/25 00:58:08;;;;;;;0.10;0.10;;;;;;;21.03;65.95;100859.75;5008843;28;20093;-76
2022/06/25 01:00:35;;;;;;;0.10;0.10;;;;;;;21.00;65.97;100863.50;5004791;28;20034;-76
2022/06/25 01:03:01;;;;;;;0.20;0.20;;;;;;;21.00;65.95;100866.19;4997998;28;20030;-76
2022/06/25 01:05:31;;;;;;;0.10;0.10;;;;;;;21.04;66.04;100872.25;5010981;28;20038;-77
2022/06/25 01:07:57;;;;;;;0.10;0.10;;;;;;;20.99;65.94;100873.38;5015077;28;20042;-77
2022/06/25 01:10:23;;;;;;;0.10;0.10;;;;;;;20.98;65.68;100882.41;5011758;28;20038;-76
2022/06/25 01:12:49;;;;;;;1.77;0.75;;;;;;;20.96;65.96;100884.38;5005703;28;20033;-77
2022/06/25 01:15:18;;;;;;;0.05;0.05;;;;;;;20.97;65.76;100886.09;5006769;28;20037;-77
2022/06/25 01:17:47;;;;;;;0.10;0.10;;;;;;;20.94;66.01;100886.28;5002471;28;20038;-77
2022/06/25 01:20:15;;;;;;;0.32;0.32;;;;;;;20.93;65.70;100883.69;5004779;28;20462;-76
2022/06/25 01:22:41;;;;;;;0.57;0.57;;;;;;;20.92;66.03;100890.91;5004560;28;20671;-77
2022/06/25 01:25:09;;;;;;;0.10;0.10;;;;;;;20.90;65.68;100886.56;5011017;28;20037;-76
2022/06/25 01:27:36;;;;;;;0.10;0.10;;;;;;;20.89;65.78;100893.78;5003227;28;20099;-76
2022/06/25 01:30:03;;;;;;;0.10;0.10;;;;;;;20.88;65.93;100900.13;5009890;28;20017;-76
2022/06/25 01:32:29;;;;;;;1.00;0.50;;;;;;;20.85;65.73;100895.81;5024106;28;20103;-76
2022/06/25 01:34:56;;;;;;;0.10;0.10;;;;;;;20.84;65.89;100898.59;5014521;28;20029;-76
2022/06/25 01:37:22;;;;;;;0.10;0.10;;;;;;;20.82;65.79;100904.09;4997661;28;20084;-76
2022/06/25 01:39:54;;;;;;;0.10;0.10;;;;;;;20.84;65.80;100898.59;5018516;28;20032;-77
2022/06/25 01:45:08;;;;;;;0.05;0.05;;;;;;;20.79;65.77;100908.81;5010256;28;20065;-76
2022/06/25 01:47:34;;;;;;;0.10;0.10;;;;;;;20.77;65.85;100916.09;5012316;28;20029;-76
2022/06/25 01:50:00;;;;;;;0.20;0.20;;;;;;;20.73;66.23;100917.25;5016490;28;20026;-76
2022/06/25 01:52:26;;;;;;;0.17;0.17;;;;;;;20.72;66.10;100915.50;5004178;28;20026;-76
2022/06/25 01:54:53;;;;;;;0.10;0.10;;;;;;;20.69;66.30;100930.84;5012775;28;20029;-77
2022/06/25 01:57:19;;;;;;;0.00;0.00;;;;;;;20.68;65.94;100931.81;5019774;28;20030;-76
2022/06/25 01:59:47;;;;;;;0.20;0.20;;;;;;;20.67;66.25;100927.41;5013176;28;20519;-76
2022/06/25 02:02:13;;;;;;;0.10;0.10;;;;;;;20.67;66.06;100935.50;5016416;28;20040;-76
2022/06/25 02:04:39;;;;;;;0.10;0.10;;;;;;;20.66;66.04;100925.69;5008926;28;20041;-76
2022/06/25 02:07:05;;;;;;;0.82;0.82;;;;;;;20.66;66.11;100935.56;5013359;28;20036;-76
2022/06/25 02:09:32;;;;;;;0.10;0.10;;;;;;;20.64;65.98;100932.97;5015146;28;20030;-76
2022/06/25 02:11:58;;;;;;;0.20;0.20;;;;;;;20.61;66.17;100943.06;5007204;28;20444;-75
2022/06/25 02:14:26;;;;;;;0.57;0.57;;;;;;;20.60;66.16;100942.19;5021876;28;20033;-76
2022/06/25 02:16:53;;;;;;;0.20;0.20;;;;;;;20.59;65.93;100942.31;5013704;28;20483;-75
2022/06/25 02:19:19;;;;;;;0.10;0.10;;;;;;;20.58;66.06;100940.56;5014238;28;20484;-75
2022/06/25 02:21:45;;;;;;;0.20;0.20;;;;;;;20.59;66.02;100945.00;5016094;28;20034;-76
2022/06/25 02:24:11;;;;;;;0.00;0.00;;;;;;;20.58;66.09;100943.25;5019644;28;20033;-75
2022/06/25 02:26:38;;;;;;;0.10;0.10;;;;;;;20.55;66.42;100955.06;5020548;28;20033;-75
2022/06/25 02:29:04;;;;;;;0.10;0.10;;;;;;;20.55;65.99;100946.13;5009395;28;21466;-75
2022/06/25 02:31:30;;;;;;;0.10;0.10;;;;;;;20.53;66.32;100951.59;5007413;28;20476;-76
2022/06/25 02:33:56;;;;;;;0.10;0.10;;;;;;;20.54;66.10;100953.34;5013541;28;20038;-76
2022/06/25 02:36:22;;;;;;;0.10;0.10;;;;;;;20.53;66.12;100948.91;5012395;28;20075;-75
2022/06/25 02:38:48;;;;;;;0.10;0.10;;;;;;;20.52;66.12;100950.75;5016356;28;20041;-76
2022/06/25 02:41:15;;;;;;;0.10;0.10;;;;;;;20.51;65.94;100950.81;5009600;28;20044;-75
2022/06/25 02:43:41;;;;;;;0.10;0.10;;;;;;;20.49;65.91;100952.75;5008200;28;20030;-75
2022/06/25 02:46:07;;;;;;;0.05;0.05;;;;;;;20.47;66.05;100951.97;5017219;28;20524;-75
2022/06/25 02:48:33;;;;;;;0.63;0.63;;;;;;;20.46;65.81;100959.19;5015621;28;20643;-75
2022/06/25 02:51:00;;;;;;;0.10;0.10;;;;;;;20.45;66.01;100967.34;5012961;28;20037;-76
2022/06/25 02:53:26;;;;;;;0.10;0.10;;;;;;;20.43;66.03;100969.25;5010810;28;20034;-77
2022/06/25 02:58:54;;;;;;;0.40;0.40;;;;;;;20.40;65.72;100975.69;5015813;28;20041;-75
2022/06/25 03:01:22;;;;;;;0.00;0.00;;;;;;;20.39;65.83;100975.75;5011281;28;20037;-75
2022/06/25 03:03:48;;;;;;;0.00;0.00;;;;;;;20.36;65.91;100977.69;5005500;28;20026;-75
2022/06/25 03:06:14;;;;;;;0.05;0.05;;;;;;;20.34;65.81;100984.13;5007525;28;20030;-75
2022/06/25 03:08:41;;;;;;;0.08;0.08;;;;;;;20.34;65.82;100979.59;5012890;28;20120;-75
2022/06/25 03:11:07;;;;;;;0.15;0.15;;;;;;;20.34;65.82;100989.50;5011911;28;20029;-75
2022/06/25 03:13:36;;;;;;;0.10;0.10;;;;;;;20.34;66.00;100984.13;5004396;28;20046;-75
2022/06/25 03:16:05;;;;;;;0.35;0.35;;;;;;;20.37;66.02;100992.00;5012572;28;20049;-76
2022/06/25 03:18:32;;;;;;;0.17;0.17;;;;;;;20.38;66.04;100990.22;5006441;28;20039;-75
2022/06/25 03:20:58;;;;;;;0.40;0.40;;;;;;;20.41;66.14;100990.00;5013318;28;20235;-76
2022/06/25 03:23:24;;;;;;;0.00;0.00;;;;;;;20.44;65.96;100989.84;5008169;28;20038;-76
2022/06/25 03:25:51;;;;;;;0.30;0.30;;;;;;;20.47;65.86;100981.56;4999035;28;20101;-76
2022/06/25 03:28:17;;;;;;;0.00;0.00;;;;;;;20.53;65.85;100990.13;5016604;28;20026;-76
2022/06/25 03:30:43;;;;;;;0.15;0.15;;;;;;;20.57;65.60;100988.13;5010794;28;20041;-75
2022/06/25 03:33:09;;;;;;;0.05;0.05;;;;;;;20.61;65.42;100989.69;5008455;28;20053;-76
2022/06/25 03:35:35;;;;;;;0.10;0.10;;;;;;;20.66;65.58;100995.66;5002748;28;20049;-75
2022/06/25 03:38:01;;;;;;;0.00;0.00;;;;;;;20.69;65.40;100995.47;5015499;28;20025;-76
2022/06/25 03:40:28;;;;;;;0.03;0.03;;;;;;;20.76;65.30;101000.53;5007585;28;20407;-75
2022/06/25 03:42:54;;;;;;;0.13;0.13;;;;;;;20.79;65.31;101001.19;5002585;28;20088;-76
2022/06/25 03:45:20;;;;;;;0.10;0.10;;;;;;;20.83;65.07;101001.88;5010909;28;20030;-76
2022/06/25 03:47:50;;;;;;;0.10;0.10;;;;;;;20.87;65.04;101008.81;5010924;28;20411;-76
2022/06/25 03:50:17;;;;;;;0.45;0.45;;;;;;;20.88;65.03;101005.16;5008330;28;20392;-76
2022/06/25 03:52:44;;;;;;;0.20;0.20;;;;;;;20.92;64.93;101008.53;5007780;28;20030;-76
2022/06/25 03:55:10;;;;;;;0.03;0.03;;;;;;;20.95;65.14;101000.28;5009205;28;20041;-76
2022/06/25 03:57:36;;;;;;;0.10;0.10;;;;;;;20.96;64.75;101013.66;5007605;28;20036;-76
2022/06/25 04:00:06;;;;;;;0.05;0.05;;;;;;;21.00;64.79;101007.09;5014515;28;20681;-76
2022/06/25 04:02:32;;;;;;;0.05;0.05;;;;;;;21.05;64.57;101011.34;5012061;28;20503;-76
2022/06/25 04:04:58;;;;;;;0.10;0.10;;;;;;;21.10;64.59;101014.63;4998825;28;20034;-76
2022/06/25 04:07:25;;;;;;;0.08;0.08;;;;;;;21.13;64.54;101014.44;5014735;28;20049;-76
2022/06/25 04:09:51;;;;;;;0.00;0.00;;;;;;;21.14;64.15;101014.34;5010333;28;20412;-76
2022/06/25 04:12:17;;;;;;;0.10;0.10;;;;;;;21.18;63.97;101012.31;5008036;28;20044;-75
2022/06/25 04:14:43;;;;;;;0.30;0.30;;;;;;;21.22;63.99;101007.59;5010031;28;20041;-76
2022/06/25 04:17:11;;;;;;;0.10;0.10;;;;;;;21.24;63.91;101003.84;5001049;28;20038;-75
2022/06/25 04:19:40;;;;;;;0.10;0.10;;;;;;;21.25;63.31;101007.44;5002151;28;20111;-75
2022/06/25 04:22:08;;;;;;;0.10;0.10;;;;;;;21.28;63.33;101010.81;5008506;28;20032;-75
2022/06/25 04:24:35;;;;;;;0.22;0.17;;;;;;;21.26;63.13;101012.72;5009726;28;20037;-76
2022/06/25 04:27:02;;;;;;;0.40;0.38;;;;;;;21.29;63.46;101009.81;5003477;28;20508;-75
2022/06/25 04:29:30;;;;;;;0.00;0.00;;;;;;;21.31;63.34;101018.69;5001326;28;20034;-76
2022/06/25 04:31:56;;;;;;;0.00;0.00;;;;;;;21.31;63.02;101018.69;5007732;28;20036;-76
2022/06/25 04:34:22;;;;;;;0.20;0.20;;;;;;;21.36;63.25;101022.91;5006347;28;20045;-76
2022/06/25 04:36:48;;;;;;;0.10;0.10;;;;;;;21.36;62.94;101028.31;5011370;28;20033;-76
2022/06/25 04:39:15;;;;;;;0.10;0.10;;;;;;;21.37;62.71;101028.22;5007642;28;20030;-76
2022/06/25 04:41:41;;;;;;;0.10;0.10;;;;;;;21.34;62.40;101033.78;5005280;28;20110;-76
2022/06/25 04:44:07;;;;;;;0.10;0.10;;;;;;;21.34;61.84;101034.66;5002871;28;20076;-76
2022/06/25 04:46:33;;;;;;;6.13;0.65;;;;;;;21.40;61.86;101032.56;5010000;28;21649;-76
2022/06/25 04:49:02;;;;;;;0.35;0.32;;;;;;;21.37;61.29;101038.13;5007804;28;20165;-76
2022/06/25 04:51:28;;;;;;;0.00;0.00;;;;;;;21.39;61.38;101034.38;5009696;28;20061;-76
2022/06/25 04:53:55;;;;;;;1.02;0.82;;;;;;;21.36;60.77;101037.28;4995353;28;20065;-76
2022/06/25 04:56:22;;;;;;;0.00;0.00;;;;;;;21.14;60.34;101037.72;5003231;28;20044;-76
2022/06/25 04:58:48;;;;;;;0.00;0.00;;;;;;;21.21;60.14;101048.97;5010625;28;20029;-76
2022/06/25 05:01:14;;;;;;;0.22;0.22;;;;;;;21.26;60.67;101053.13;5005490;28;20053;-76
2022/06/25 05:03:40;;;;;;;0.10;0.10;;;;;;;21.31;60.75;101056.41;5004780;28;20022;-76
2022/06/25 05:06:06;;;;;;;0.00;0.00;;;;;;;21.26;60.50;101058.53;5010163;28;20113;-76
2022/06/25 05:08:33;;;;;;;0.00;0.00;;;;;;;21.32;60.87;101058.16;5005550;28;20058;-76
2022/06/25 05:10:59;;;;;;;0.50;0.30;;;;;;;21.26;60.58;101058.53;5001369;28;20773;-75
2022/06/25 05:13:25;;;;;;;0.10;0.10;;;;;;;21.22;60.83;101066.88;4992586;28;20038;-75
2022/06/25 05:15:52;;;;;;;0.55;0.10;;;;;;;21.31;60.74;101067.19;5002485;28;20030;-75
2022/06/25 05:18:19;;;;;;;0.32;0.32;;;;;;;21.31;60.46;101067.19;5009094;28;20458;-75
2022/06/25 05:20:45;;;;;;;0.30;0.30;;;;;;;21.33;60.21;101064.41;5043410;23;20112;-84
2022/06/25 05:23:12;;;;;;;0.25;0.25;;;;;;;21.28;59.90;101063.81;5025908;28;20026;-83
2022/06/25 05:25:39;;;;;;;0.10;0.10;;;;;;;21.39;59.94;101072.09;5021088;28;20036;-83
2022/06/25 05:28:06;;;;;;;0.00;0.00;;;;;;;21.39;60.05;101068.56;5030282;28;20428;-82
2022/06/25 05:30:33;;;;;;;0.20;0.20;;;;;;;21.45;60.00;101076.25;5009999;28;20082;-83
2022/06/25 05:32:59;;;;;;;0.10;0.10;;;;;;;21.49;59.81;101083.19;5011616;28;20030;-84
2022/06/25 05:35:26;;;;;;;0.85;0.73;;;;;;;21.48;60.02;101078.75;5011664;28;20033;-84
2022/06/25 05:37:52;;;;;;;0.28;0.28;;;;;;;21.43;59.69;101075.47;5014822;28;20030;-83
2022/06/25 05:40:19;;;;;;;0.20;0.20;;;;;;;21.45;59.37;101078.94;5015147;28;20069;-83
2022/06/25 05:42:45;;;;;;;0.60;0.60;;;;;;;21.45;59.86;101079.81;5011275;28;20069;-83
2022/06/25 05:45:12;;;;;;;0.10;0.10;;;;;;;21.55;59.50;101088.19;5002827;28;20089;-83
2022/06/25 05:47:38;;;;;;;0.00;0.00;;;;;;;21.62;59.15;101076.09;5002090;28;20494;-84
2022/06/25 05:50:06;;;;;;;0.08;0.08;;;;;;;21.78;59.47;101080.50;4997795;28;20522;-83
2022/06/25 05:52:32;;;;;;;0.10;0.10;;;;;;;21.88;59.13;101087.06;5000325;28;20030;-83
2022/06/25 05:54:58;;;;;;;0.10;0.10;;;;;;;21.88;58.84;101087.06;5004384;28;20034;-83
2022/06/25 05:57:24;;;;;;;0.35;0.35;;;;;;;21.87;58.40;101089.84;5009802;28;20022;-83
2022/06/25 05:59:51;;;;;;;0.10;0.10;;;;;;;22.02;58.38;101093.38;5000469;28;20022;-84
2022/06/25 06:02:17;;;;;;;0.10;0.10;;;;;;;22.12;58.83;101100.78;4998225;28;20033;-83
2022/06/25 06:04:43;;;;;;;2.00;1.30;;;;;;;22.17;58.41;101092.41;5006775;28;20033;-83
2022/06/25 06:07:09;;;;;;;0.00;0.00;;;;;;;22.23;58.32;101097.41;5017071;28;20049;-84
2022/06/25 06:09:36;;;;;;;0.77;0.77;;;;;;;22.33;57.97;101096.78;5016492;28;20041;-84
2022/06/25 06:12:02;;;;;;;1.13;0.55;;;;;;;22.38;57.36;101103.66;5007105;28;20035;-84
2022/06/25 06:14:28;;;;;;;0.10;0.10;;;;;;;22.47;57.58;101104.91;5011217;28;20034;-84
2022/06/25 06:16:56;;;;;;;0.00;0.00;;;;;;;22.49;57.40;101108.34;5008454;28;20066;-84
2022/06/25 06:19:22;;;;;;;0.05;0.05;;;;;;;22.40;56.91;101114.34;5008534;28;20022;-84
2022/06/25 06:21:48;;;;;;;0.13;0.13;;;;;;;22.56;56.82;101109.66;4998155;28;20430;-84
2022/06/25 06:24:14;;;;;;;0.00;0.00;;;;;;;22.58;56.88;101110.44;5007570;28;20038;-84
2022/06/25 06:26:41;;;;;;;0.10;0.10;;;;;;;22.74;56.70;101112.09;5003676;28;20042;-84
2022/06/25 06:29:07;;;;;;;0.10;0.10;;;;;;;22.85;56.89;101114.09;5012224;28;20030;-84
2022/06/25 06:31:33;;;;;;;0.55;0.55;;;;;;;22.96;56.54;101121.47;5000158;28;20030;-84
2022/06/25 06:33:59;;;;;;;0.10;0.10;;;;;;;23.13;56.84;101123.88;5002423;28;20030;-84
2022/06/25 06:36:25;;;;;;;0.10;0.10;;;;;;;23.20;55.82;101130.66;5015069;28;20034;-84
2022/06/25 06:38:51;;;;;;;0.20;0.20;;;;;;;23.18;54.94;101131.69;5009068;28;20045;-84
2022/06/25 06:41:17;;;;;;;0.00;0.00;;;;;;;23.32;54.84;101138.88;4996974;28;20034;-84
2022/06/25 06:43:44;;;;;;;0.10;0.10;;;;;;;23.43;55.46;101136.28;5002555;28;20161;-84
2022/06/25 06:46:13;;;;;;;0.10;0.10;;;;;;;23.41;54.55;101149.03;5014300;28;20469;-85
2022/06/25 06:48:39;;;;;;;0.43;0.43;;;;;;;23.49;54.94;101141.25;5001064;28;20030;-84
2022/06/25 06:51:06;;;;;;;0.20;0.20;;;;;;;23.61;55.05;101136.81;5003144;28;20034;-84
2022/06/25 06:53:33;;;;;;;0.10;0.10;;;;;;;23.66;54.85;101141.91;5005574;28;20034;-84
2022/06/25 06:56:00;;;;;;;0.52;0.52;;;;;;;23.65;54.54;101141.06;5003485;28;20030;-84
2022/06/25 06:58:27;;;;;;;0.35;0.35;;;;;;;23.70;54.38;101144.28;4999919;28;20031;-84
2022/06/25 07:00:53;;;;;;;0.03;0.03;;;;;;;23.83;54.99;101144.28;5007327;28;20061;-84
2022/06/25 07:03:20;;;;;;;0.00;0.00;;;;;;;23.88;54.38;101142.09;5001055;28;20034;-85
2022/06/25 07:05:46;;;;;;;0.30;0.30;;;;;;;23.89;54.45;101143.00;4998815;28;20065;-84
2022/06/25 07:08:12;;;;;;;0.10;0.10;;;;;;;24.01;54.17;101146.66;4996679;28;20045;-85
2022/06/25 07:10:38;;;;;;;0.43;0.43;;;;;;;23.99;53.69;101154.03;4998521;28;20037;-84
2022/06/25 07:13:05;;;;;;;0.10;0.10;;;;;;;23.93;53.89;101154.50;4998409;28;20482;-84
2022/06/25 07:15:31;;;;;;;0.10;0.10;;;;;;;23.90;54.53;101151.00;5014887;28;20038;-83
2022/06/25 07:17:57;;;;;;;0.20;0.20;;;;;;;23.84;54.73;101164.06;5017271;28;20069;-84
2022/06/25 07:20:23;;;;;;;0.00;0.00;;;;;;;23.79;54.40;101160.84;5002283;28;20092;-83
2022/06/25 07:22:49;;;;;;;0.00;0.00;;;;;;;23.73;54.56;101162.16;4995098;28;20023;-84
2022/06/25 07:25:15;;;;;;;0.10;0.10;;;;;;;23.70;54.91;101156.94;4997715;28;20045;-80
2022/06/25 07:27:43;;;;;;;0.10;0.10;;;;;;;23.61;54.97;101160.31;4996217;28;20026;-82
2022/06/25 07:30:10;;;;;;;0.00;0.00;;;;;;;23.59;55.00;101165.84;4993486;28;20121;-81
2022/06/25 07:32:36;;;;;;;0.38;0.38;;;;;;;23.40;54.46;101168.94;4995335;28;20568;-82
2022/06/25 07:35:03;;;;;;;1.98;1.55;;;;;;;23.42;54.27;101167.84;4995873;28;20031;-81
2022/06/25 07:37:29;;;;;;;0.10;0.10;;;;;;;23.44;54.71;101167.78;4997278;28;20034;-81
2022/06/25 07:39:55;;;;;;;0.10;0.10;;;;;;;23.55;55.09;101167.88;4997311;28;20037;-82
2022/06/25 07:42:21;;;;;;;0.10;0.10;;;;;;;23.62;54.74;101164.75;4995216;28;20450;-83
2022/06/25 07:44:47;;;;;;;0.30;0.28;;;;;;;23.66;54.37;101166.25;4999022;28;20042;-82
2022/06/25 07:47:13;;;;;;;0.00;0.00;;;;;;;23.71;53.97;101166.78;4999446;28;20074;-82
2022/06/25 07:52:25;;;;;;;0.10;0.10;;;;;;;23.89;54.66;101167.34;4998787;28;20041;-82
2022/06/25 07:54:52;;;;;;;0.10;0.10;;;;;;;23.87;54.18;101172.84;4998885;28;20486;-83
2022/06/25 07:57:18;;;;;;;0.20;0.20;;;;;;;23.89;53.82;101181.72;4994073;28;20114;-82
2022/06/25 07:59:44;;;;;;;0.10;0.10;;;;;;;23.84;53.80;101175.78;4998655;28;20039;-82
2022/06/25 08:02:10;;;;;;;0.10;0.10;;;;;;;23.93;53.52;101179.69;4998115;28;20037;-81
2022/06/25 08:04:36;;;;;;;0.17;0.17;;;;;;;24.06;54.34;101182.38;4999474;28;20565;-82
2022/06/25 08:07:03;;;;;;;0.45;0.45;;;;;;;24.08;53.89;101185.84;4998397;28;20030;-82
2022/06/25 08:09:30;;;;;;;0.43;0.43;;;;;;;24.19;54.15;101187.81;5000704;28;20025;-83
2022/06/25 08:11:56;;;;;;;0.10;0.10;;;;;;;24.14;53.56;101190.81;4999326;28;20038;-83
2022/06/25 08:14:22;;;;;;;0.17;0.17;;;;;;;24.04;53.56;101189.78;5000249;28;20074;-84
2022/06/25 08:16:48;;;;;;;0.08;0.08;;;;;;;24.10;53.63;101193.84;5000237;28;20034;-83
2022/06/25 08:19:14;;;;;;;0.10;0.10;;;;;;;24.12;53.45;101181.09;5000801;28;20030;-83
2022/06/25 08:21:40;;;;;;;0.20;0.15;;;;;;;24.16;53.60;101191.59;4991039;28;20083;-83
2022/06/25 08:24:06;;;;;;;0.10;0.10;;;;;;;24.21;53.78;101185.81;4999591;28;20145;-84
2022/06/25 08:26:33;;;;;;;0.30;0.30;;;;;;;24.21;52.77;101185.81;5000366;28;20081;-83
2022/06/25 08:28:59;;;;;;;0.10;0.10;;;;;;;24.32;53.04;101188.63;5000464;28;20030;-82
2022/06/25 08:31:29;;;;;;;0.00;0.00;;;;;;;24.45;53.55;101194.03;5000046;28;20026;-83
2022/06/25 08:33:55;;;;;;;0.10;0.10;;;;;;;24.53;53.37;101190.75;5000604;28;20116;-83
2022/06/25 08:36:22;;;;;;;0.10;0.10;;;;;;;24.59;53.21;101194.84;5004200;28;20034;-82
2022/06/25 08:38:48;;;;;;;0.10;0.10;;;;;;;24.62;52.87;101191.91;4999969;28;20030;-83
2022/06/25 08:41:14;;;;;;;0.20;0.20;;;;;;;24.65;53.19;101184.44;5000167;28;20121;-84
2022/06/25 08:43:41;;;;;;;0.00;0.00;;;;;;;24.70;52.95;101194.94;4998198;28;20037;-84
2022/06/25 08:46:07;;;;;;;0.20;0.20;;;;;;;24.79;52.61;101190.69;4999375;28;20462;-82
2022/06/25 08:48:37;;;;;;;0.00;0.00;;;;;;;24.89;52.67;101193.56;5001206;28;20030;-83
2022/06/25 08:51:04;;;;;;;0.10;0.10;;;;;;;25.07;52.73;101192.16;4999971;28;20060;-84
2022/06/25 08:53:32;;;;;;;0.05;0.05;;;;;;;25.17;52.34;101189.63;5001365;28;20035;-83
2022/06/25 08:56:00;;;;;;;0.10;0.10;;;;;;;25.30;51.91;101190.41;5013047;28;20105;-81
2022/06/25 08:58:26;;;;;;;0.00;0.00;;;;;;;25.40;51.60;101196.03;5000286;28;20034;-82
2022/06/25 09:00:52;;;;;;;0.10;0.10;;;;;;;25.47;50.67;101190.97;5005008;28;20042;-83
2022/06/25 09:03:19;;;;;;;0.52;0.52;;;;;;;25.52;51.03;101195.06;4996390;28;20479;-85
2022/06/25 09:05:46;;;;;;;0.10;0.10;;;;;;;25.49;50.58;101195.28;4991178;28;20049;-86
2022/06/25 09:08:14;;;;;;;0.10;0.10;;;;;;;25.41;50.24;101202.31;4988054;28;20045;-82
2022/06/25 09:10:44;;;;;;;0.10;0.10;;;;;;;25.40;51.09;101195.16;4991331;28;20041;-88
2022/06/25 09:13:11;;;;;;;0.10;0.10;;;;;;;25.19;50.91;101210.19;4995410;28;20493;-86
2022/06/25 09:15:44;;;;;;;0.17;0.17;;;;;;;25.04;50.93;101214.09;4994368;28;20041;-87
2022/06/25 09:18:12;;;;;;;2.45;1.48;;;;;;;24.65;51.46;101213.38;4993328;28;20105;-88
2022/06/25 09:21:02;;;;;;;0.20;0.20;;;;;;;24.37;51.59;101221.66;4999341;28;20506;-87
2022/06/25 09:23:30;;;;;;;0.38;0.38;;;;;;;24.10;52.34;101221.81;4987826;28;20666;-84
2022/06/25 09:28:44;;;;;;;0.30;0.30;;;;;;;23.42;55.23;101226.47;5063043;28;20391;-80
2022/06/25 09:31:11;;;;;;;0.13;0.13;;;;;;;23.14;55.87;101225.63;5072967;28;20029;-81
2022/06/25 09:33:41;;;;;;;0.10;0.10;;;;;;;22.92;57.25;101231.59;5074877;28;20087;-81
2022/06/25 09:36:09;;;;;;;0.00;0.00;;;;;;;22.72;57.75;101231.06;5075263;28;20043;-80
2022/06/25 09:38:47;;;;;;;0.00;0.00;;;;;;;22.68;57.17;101231.34;5071355;28;20035;-80
2022/06/25 09:41:13;;;;;;;0.00;0.00;;;;;;;22.58;57.55;101236.47;5068786;28;20455;-82
2022/06/25 09:43:41;;;;;;;0.10;0.10;;;;;;;22.42;58.25;101247.41;5074210;28;20025;-81
2022/06/25 09:46:07;;;;;;;0.10;0.10;;;;;;;22.26;57.93;101242.94;5074137;28;20037;-80
2022/06/25 09:48:36;;;;;;;0.15;0.15;;;;;;;22.13;59.42;101255.47;5075189;28;20447;-80
2022/06/25 09:53:53;;;;;;;0.10;0.10;;;;;;;21.76;62.24;101257.75;5074259;28;20403;-80
2022/06/25 09:58:56;;;;;;;0.10;0.10;;;;;;;21.68;62.19;101263.59;5115844;27;20391;-79
2022/06/25 10:01:26;;;;;;;0.20;0.20;;;;;;;21.67;63.55;101261.00;5112195;28;20088;-80
2022/06/25 10:03:53;;;;;;;0.30;0.30;;;;;;;21.56;63.19;101259.81;5111799;28;20043;-82
2022/06/25 10:06:21;;;;;;;0.30;0.30;;;;;;;21.60;63.19;101272.16;5116463;28;20024;-81
2022/06/25 10:08:51;;;;;;;0.10;0.10;;;;;;;21.59;63.74;101270.41;5096167;28;20028;-82
2022/06/25 10:11:20;;;;;;;0.00;0.00;;;;;;;21.50;63.13;101266.41;5100176;28;20028;-79
2022/06/25 10:13:49;;;;;;;0.10;0.10;;;;;;;21.49;63.12;101263.78;5117182;28;20032;-82
2022/06/25 10:16:16;;;;;;;0.10;0.10;;;;;;;21.55;62.57;101274.22;5132032;27;20020;-82
2022/06/25 10:18:43;;;;;;;0.17;0.17;;;;;;;21.55;62.83;101274.22;5137130;27;20024;-82
2022/06/25 10:21:12;;;;;;;0.05;0.05;;;;;;;21.66;62.66;101265.53;5135659;27;20039;-80
2022/06/25 10:23:40;;;;;;;0.10;0.10;;;;;;;21.82;62.52;101262.78;5139309;27;20030;-80
2022/06/25 10:26:07;;;;;;;0.08;0.08;;;;;;;21.92;62.34;101266.63;5123836;27;20554;-79
2022/06/25 10:28:35;;;;;;;0.13;0.13;;;;;;;22.13;61.41;101274.34;5116953;28;20027;-81
2022/06/25 10:31:06;;;;;;;0.10;0.10;;;;;;;22.22;60.98;101268.41;5114783;28;20093;-82
2022/06/25 10:33:52;;;;;;;0.10;0.10;;;;;;;22.35;61.45;101270.34;5115299;28;20096;-82
2022/06/25 10:36:18;;;;;;;0.43;0.43;;;;;;;22.42;60.52;101269.88;5114095;28;20054;-80
2022/06/25 10:38:44;;;;;;;1.38;0.40;;;;;;;22.44;60.28;101262.56;5111031;28;20038;-80
2022/06/25 10:43:59;;;;;;;0.10;0.10;;;;;;;22.92;59.62;101248.66;5103276;28;20063;-80
2022/06/25 10:51:48;;;;;;;0.27;0.27;;;;;;;23.45;58.66;101247.03;5110277;27;1184955;-81
2022/06/25 10:57:04;;;;;;;0.10;0.10;;;;;;;23.72;57.04;101255.94;5109536;27;20865;-80
2022/06/25 11:02:11;;;;;;;0.00;0.00;;;;;;;23.64;56.35;101263.75;5094924;27;20378;-81
2022/06/25 11:04:38;;;;;;;0.52;0.52;;;;;;;23.64;56.42;101262.88;5070148;28;20067;-81
2022/06/25 11:12:34;;;;;;;0.10;0.10;;;;;;;24.06;56.81;101269.00;5103403;27;20412;-81
2022/06/25 11:15:06;;;;;;;0.35;0.35;;;;;;;24.27;56.86;101260.34;5135352;27;20114;-81
2022/06/25 11:17:32;;;;;;;0.10;0.10;;;;;;;24.47;55.33;101257.03;5135316;27;20208;-80
2022/06/25 11:20:06;;;;;;;0.05;0.05;;;;;;;24.49;52.99;101260.53;5135130;27;20027;-81
2022/06/25 11:22:32;;;;;;;0.20;0.20;;;;;;;24.73;53.49;101257.03;5135724;27;20049;-81
2022/06/25 11:30:31;;;;;;;0.35;0.35;;;;;;;25.33;52.85;101259.81;5049650;28;20132;-81
2022/06/25 11:32:57;;;;;;;0.00;0.00;;;;;;;25.44;53.91;101259.03;5049248;28;20033;-81
2022/06/25 11:35:38;;;;;;;0.85;0.30;;;;;;;25.64;53.69;101258.34;5050213;28;20029;-81
2022/06/25 11:38:12;;;;;;;0.10;0.10;;;;;;;25.76;53.44;101256.53;5049380;28;20021;-81
2022/06/25 11:40:38;;;;;;;0.10;0.10;;;;;;;25.86;52.92;101262.13;5048790;28;20403;-81
2022/06/25 11:43:07;;;;;;;0.10;0.10;;;;;;;25.95;51.53;101265.97;5049841;28;20458;-81
2022/06/25 11:45:45;;;;;;;0.10;0.10;;;;;;;25.91;51.64;101259.91;5050212;28;20104;-80
2022/06/25 11:48:11;;;;;;;0.10;0.10;;;;;;;26.18;50.22;101271.44;5049486;28;20036;-80
2022/06/25 11:50:38;;;;;;;0.05;0.05;;;;;;;26.35;49.87;101262.81;5049368;28;20450;-80
2022/06/25 11:53:04;;;;;;;0.03;0.03;;;;;;;26.62;49.01;101264.28;5048139;28;20448;-80
2022/06/25 11:55:30;;;;;;;0.10;0.10;;;;;;;26.68;49.54;101263.78;5048431;28;20044;-80
2022/06/25 11:57:58;;;;;;;0.10;0.10;;;;;;;26.50;47.47;101260.72;5068841;28;20072;-80
2022/06/25 12:00:25;;;;;;;0.00;0.00;;;;;;;26.48;49.10;101274.44;5069208;28;20021;-80
2022/06/25 12:03:02;;;;;;;0.20;0.20;;;;;;;26.65;49.68;101274.91;5069130;28;20483;-80
2022/06/25 12:05:29;;;;;;;0.00;0.00;;;;;;;26.57;47.58;101269.25;5069442;28;20033;-81